createdAt,value
2019-01-29T00:01:28.872Z,87.50
2019-01-29T00:04:13.689Z,87.70
2019-01-29T00:06:58.957Z,88.10
2019-01-29T00:09:44.112Z,88.60
2019-01-29T00:12:29.612Z,89.30
2019-01-29T00:15:14.959Z,89.80
2019-01-29T00:18:00.089Z,89.30
2019-01-29T00:20:45.331Z,89.40
2019-01-29T00:23:30.509Z,89.40
2019-01-29T00:26:16.089Z,89.60
2019-01-29T00:29:01.573Z,89.60
2019-01-29T00:31:46.598Z,89.30
2019-01-29T00:34:31.320Z,89.70
2019-01-29T00:37:16.508Z,88.80
2019-01-29T00:40:01.204Z,89.40
2019-01-29T00:42:46.599Z,89.00
2019-01-29T00:45:31.587Z,89.20
2019-01-29T00:48:16.449Z,89.30
2019-01-29T00:51:01.764Z,88.80
2019-01-29T00:53:46.432Z,89.00
2019-01-29T00:56:31.249Z,89.00
2019-01-29T00:59:16.659Z,88.70
2019-01-29T01:02:01.731Z,89.00
2019-01-29T01:04:46.911Z,88.20
2019-01-29T01:07:31.795Z,88.00
2019-01-29T01:10:19.494Z,88.00
2019-01-29T01:13:04.291Z,88.90
2019-01-29T01:15:49.047Z,88.10
2019-01-29T01:18:34.090Z,88.30
2019-01-29T01:21:18.797Z,88.50
2019-01-29T01:24:03.447Z,88.20
2019-01-29T01:26:48.247Z,87.70
2019-01-29T01:29:33.707Z,88.60
2019-01-29T01:32:19.455Z,87.90
2019-01-29T01:35:04.463Z,87.50
2019-01-29T01:37:49.481Z,87.40
2019-01-29T01:40:34.346Z,87.30
2019-01-29T01:43:19.682Z,87.50
2019-01-29T01:46:04.694Z,87.20
2019-01-29T01:48:49.925Z,86.60
2019-01-29T01:51:34.782Z,87.30
2019-01-29T01:54:20.106Z,87.20
2019-01-29T01:57:05.723Z,86.90
2019-01-29T01:59:51.017Z,86.80
2019-01-29T02:02:35.979Z,86.80
2019-01-29T02:05:21.025Z,86.40
2019-01-29T02:08:06.227Z,86.70
2019-01-29T02:10:51.353Z,86.70
2019-01-29T02:13:36.278Z,86.70
2019-01-29T02:16:21.581Z,87.00
2019-01-29T02:19:06.602Z,87.00
2019-01-29T02:21:51.688Z,86.70
2019-01-29T02:24:36.940Z,87.10
2019-01-29T02:27:21.719Z,86.70
2019-01-29T02:30:15.602Z,86.70
2019-01-29T02:33:00.433Z,87.00
2019-01-29T02:35:45.206Z,86.60
2019-01-29T02:38:29.944Z,87.50
2019-01-29T02:41:17.610Z,87.20
2019-01-29T02:44:02.404Z,86.70
2019-01-29T02:46:47.112Z,86.70
2019-01-29T02:49:32.475Z,86.20
2019-01-29T02:52:17.247Z,86.50
2019-01-29T02:55:02.830Z,86.40
2019-01-29T02:57:47.749Z,86.60
2019-01-29T03:00:33.213Z,85.90
2019-01-29T03:03:18.608Z,86.30
2019-01-29T03:06:03.526Z,85.50
2019-01-29T03:08:48.808Z,85.60
2019-01-29T03:11:34.077Z,85.40
2019-01-29T03:14:19.145Z,85.40
2019-01-29T03:17:04.124Z,85.40
2019-01-29T03:19:48.819Z,85.80
2019-01-29T03:22:34.172Z,86.00
2019-01-29T03:25:19.136Z,86.00
2019-01-29T03:28:04.266Z,85.40
2019-01-29T03:30:49.037Z,85.30
2019-01-29T03:33:33.799Z,85.80
2019-01-29T03:36:18.482Z,85.70
2019-01-29T03:39:06.965Z,85.40
2019-01-29T03:41:52.338Z,85.60
2019-01-29T03:44:37.641Z,85.60
2019-01-29T03:47:23.096Z,85.70
2019-01-29T03:50:11.161Z,86.30
2019-01-29T03:52:56.192Z,87.00
2019-01-29T03:55:41.283Z,86.60
2019-01-29T03:58:26.000Z,86.70
2019-01-29T04:01:11.843Z,86.50
2019-01-29T04:03:56.551Z,86.80
2019-01-29T04:06:41.852Z,86.20
2019-01-29T04:09:27.323Z,86.20
2019-01-29T04:12:12.485Z,85.90
2019-01-29T04:14:57.453Z,86.30
2019-01-29T04:17:42.622Z,86.30
2019-01-29T04:20:27.359Z,86.30
2019-01-29T04:23:12.043Z,85.80
2019-01-29T04:25:57.276Z,86.30
2019-01-29T04:28:43.062Z,86.70
2019-01-29T04:31:27.979Z,87.70
2019-01-29T04:34:13.565Z,87.70
2019-01-29T04:36:58.720Z,88.10
2019-01-29T04:39:43.670Z,87.10
2019-01-29T04:42:28.391Z,87.00
2019-01-29T04:45:15.745Z,87.30
2019-01-29T04:48:01.083Z,87.10
2019-01-29T04:50:46.280Z,86.10
2019-01-29T04:53:31.148Z,86.50
2019-01-29T04:56:16.435Z,86.40
2019-01-29T04:59:01.681Z,85.70
2019-01-29T05:01:47.127Z,85.90
2019-01-29T05:04:32.336Z,86.10
2019-01-29T05:07:17.179Z,85.70
2019-01-29T05:10:05.749Z,85.60
2019-01-29T05:12:50.740Z,85.90
2019-01-29T05:15:35.882Z,86.10
2019-01-29T05:18:21.030Z,85.50
2019-01-29T05:21:06.587Z,85.50
2019-01-29T05:23:51.554Z,86.10
2019-01-29T05:26:37.543Z,86.00
2019-01-29T05:29:22.479Z,85.70
2019-01-29T05:32:07.959Z,85.70
2019-01-29T05:34:53.031Z,86.50
2019-01-29T05:37:37.998Z,85.80
2019-01-29T05:40:43.013Z,85.70
2019-01-29T05:43:28.182Z,86.10
2019-01-29T05:46:13.858Z,86.20
2019-01-29T05:48:58.715Z,85.80
2019-01-29T05:51:43.843Z,85.80
2019-01-29T05:54:28.615Z,86.30
2019-01-29T05:57:13.900Z,86.50
2019-01-29T05:59:59.179Z,86.00
2019-01-29T06:02:44.512Z,86.50
2019-01-29T06:05:29.797Z,86.10
2019-01-29T06:08:14.923Z,86.10
2019-01-29T06:10:59.669Z,86.40
2019-01-29T06:13:44.936Z,86.40
2019-01-29T06:16:30.060Z,86.40
2019-01-29T06:19:15.266Z,86.40
2019-01-29T06:22:00.157Z,86.30
2019-01-29T06:24:45.550Z,86.20
2019-01-29T06:27:31.051Z,86.40
2019-01-29T06:30:18.234Z,87.70
2019-01-29T06:33:03.286Z,88.00
2019-01-29T06:35:48.362Z,88.20
2019-01-29T06:38:56.175Z,88.50
2019-01-29T06:41:41.385Z,88.60
2019-01-29T06:44:26.761Z,89.70
2019-01-29T06:47:11.978Z,90.20
2019-01-29T06:49:57.011Z,90.10
2019-01-29T06:52:41.748Z,90.30
2019-01-29T06:55:26.976Z,90.20
2019-01-29T06:58:12.752Z,90.40
2019-01-29T07:00:57.879Z,90.20
2019-01-29T07:03:43.070Z,90.30
2019-01-29T07:06:27.781Z,90.30
2019-01-29T07:09:12.915Z,90.30
2019-01-29T07:11:59.482Z,90.30
2019-01-29T07:14:44.512Z,90.60
2019-01-29T07:17:30.535Z,90.50
2019-01-29T07:20:15.807Z,90.50
2019-01-29T07:23:01.006Z,90.40
2019-01-29T07:25:46.878Z,90.70
2019-01-29T07:28:31.679Z,90.50
2019-01-29T07:31:16.660Z,90.30
2019-01-29T07:34:01.875Z,90.30
2019-01-29T07:36:47.308Z,90.40
2019-01-29T07:39:32.460Z,90.30
2019-01-29T07:42:37.379Z,90.70
2019-01-29T07:45:22.548Z,90.60
2019-01-29T07:48:07.756Z,90.40
2019-01-29T07:50:53.122Z,90.40
2019-01-29T07:53:38.517Z,90.40
2019-01-29T07:56:23.777Z,90.60
2019-01-29T07:59:09.122Z,90.60
2019-01-29T08:01:54.045Z,90.60
2019-01-29T08:04:39.161Z,90.90
2019-01-29T08:07:24.333Z,91.10
2019-01-29T08:10:14.246Z,91.10
2019-01-29T08:12:59.232Z,91.10
2019-01-29T08:15:44.549Z,91.00
2019-01-29T08:18:29.671Z,91.20
2019-01-29T08:21:15.088Z,90.80
2019-01-29T08:24:00.511Z,90.80
2019-01-29T08:26:45.480Z,91.00
2019-01-29T08:29:30.710Z,90.80
2019-01-29T08:32:16.482Z,90.70
2019-01-29T08:35:01.892Z,90.60
2019-01-29T08:37:46.758Z,90.90
2019-01-29T08:40:31.644Z,90.90
2019-01-29T08:43:16.766Z,90.80
2019-01-29T08:46:02.121Z,90.70
2019-01-29T08:48:47.357Z,90.80
2019-01-29T08:51:32.643Z,90.80
2019-01-29T08:54:17.508Z,90.80
2019-01-29T08:57:02.927Z,90.80
2019-01-29T08:59:48.037Z,91.00
2019-01-29T09:02:32.933Z,91.00
2019-01-29T09:05:18.335Z,91.00
2019-01-29T09:08:03.377Z,90.90
2019-01-29T09:10:48.633Z,91.10
2019-01-29T09:13:33.390Z,91.00
2019-01-29T09:16:18.566Z,91.00
2019-01-29T09:19:03.519Z,91.00
2019-01-29T09:21:48.507Z,90.80
2019-01-29T09:24:33.387Z,91.20
2019-01-29T09:27:18.720Z,91.00
2019-01-29T09:30:10.354Z,91.00
2019-01-29T09:32:55.281Z,90.80
2019-01-29T09:35:40.747Z,90.90
2019-01-29T09:38:25.565Z,91.00
2019-01-29T09:41:10.386Z,90.80
2019-01-29T09:43:55.547Z,90.80
2019-01-29T09:46:41.245Z,90.80
2019-01-29T09:49:26.700Z,90.80
2019-01-29T09:52:11.920Z,90.90
2019-01-29T09:54:57.059Z,91.10
2019-01-29T09:57:42.498Z,90.80
2019-01-29T10:00:35.814Z,90.80
2019-01-29T10:03:21.167Z,91.20
2019-01-29T10:06:06.198Z,90.90
2019-01-29T10:08:51.389Z,91.10
2019-01-29T10:11:36.475Z,91.10
2019-01-29T10:14:21.168Z,91.00
2019-01-29T10:17:06.663Z,90.70
2019-01-29T10:19:51.776Z,90.60
2019-01-29T10:22:37.120Z,90.90
2019-01-29T10:25:22.457Z,90.90
2019-01-29T10:28:07.782Z,90.80
2019-01-29T10:30:52.790Z,91.00
2019-01-29T10:33:38.288Z,90.80
2019-01-29T10:36:23.398Z,90.80
2019-01-29T10:39:10.082Z,90.60
2019-01-29T10:41:55.746Z,90.80
2019-01-29T10:44:40.706Z,90.70
2019-01-29T10:47:25.422Z,90.70
2019-01-29T10:50:14.390Z,90.70
2019-01-29T10:52:59.476Z,90.80
2019-01-29T10:55:47.425Z,90.70
2019-01-29T10:58:31.414Z,90.80
2019-01-29T11:01:16.189Z,90.90
2019-01-29T11:04:01.515Z,90.70
2019-01-29T11:06:46.208Z,90.60
2019-01-29T11:09:30.993Z,90.90
2019-01-29T11:12:15.936Z,90.80
2019-01-29T11:15:00.967Z,90.70
2019-01-29T11:17:46.248Z,90.80
2019-01-29T11:20:31.472Z,90.90
2019-01-29T11:23:16.634Z,90.50
2019-01-29T11:26:01.500Z,90.30
2019-01-29T11:28:46.822Z,90.30
2019-01-29T11:31:31.754Z,90.20
2019-01-29T11:34:16.974Z,90.00
2019-01-29T11:37:02.022Z,90.10
2019-01-29T11:39:47.250Z,90.30
2019-01-29T11:42:32.242Z,90.10
2019-01-29T11:45:26.402Z,90.00
2019-01-29T11:48:11.347Z,90.40
2019-01-29T11:50:56.427Z,90.30
2019-01-29T11:53:41.797Z,90.10
2019-01-29T11:56:27.007Z,90.50
2019-01-29T11:59:12.477Z,90.30
2019-01-29T12:01:57.570Z,90.40
2019-01-29T12:04:43.240Z,90.40
2019-01-29T12:07:28.090Z,90.50
2019-01-29T12:10:13.505Z,90.70
2019-01-29T12:12:58.479Z,90.60
2019-01-29T12:15:43.721Z,90.70
2019-01-29T12:18:29.228Z,90.20
2019-01-29T12:21:14.601Z,90.20
2019-01-29T12:23:59.755Z,90.20
2019-01-29T12:26:45.022Z,90.10
2019-01-29T12:29:30.466Z,90.10
2019-01-29T12:32:15.991Z,89.90
2019-01-29T12:35:01.279Z,89.30
2019-01-29T12:37:46.370Z,89.40
2019-01-29T12:40:31.464Z,89.00
2019-01-29T12:43:16.736Z,89.00
2019-01-29T12:46:01.398Z,89.60
2019-01-29T12:48:46.193Z,89.70
2019-01-29T12:51:33.031Z,89.30
2019-01-29T12:54:18.329Z,89.70
2019-01-29T12:57:06.283Z,89.00
2019-01-29T12:59:56.017Z,88.80
2019-01-29T13:02:41.598Z,88.90
2019-01-29T13:05:26.601Z,87.50
2019-01-29T13:08:13.953Z,87.70
2019-01-29T13:10:58.729Z,87.60
2019-01-29T13:13:44.001Z,87.80
2019-01-29T13:16:29.324Z,87.30
2019-01-29T13:19:14.440Z,87.20
2019-01-29T13:21:59.648Z,86.50
2019-01-29T13:24:45.044Z,87.00
2019-01-29T13:27:30.866Z,86.60
2019-01-29T13:30:28.846Z,87.00
2019-01-29T13:33:14.432Z,87.10
2019-01-29T13:35:59.181Z,86.50
2019-01-29T13:38:44.088Z,86.40
2019-01-29T13:41:28.892Z,86.60
2019-01-29T13:44:14.290Z,86.40
2019-01-29T13:46:59.218Z,86.70
2019-01-29T13:49:44.106Z,86.60
2019-01-29T13:52:29.535Z,86.40
2019-01-29T13:55:17.794Z,86.80
2019-01-29T13:58:04.593Z,87.10
2019-01-29T14:00:49.574Z,87.00
2019-01-29T14:03:34.769Z,86.70
2019-01-29T14:06:20.059Z,86.90
2019-01-29T14:09:06.657Z,86.80
2019-01-29T14:11:51.951Z,86.60
2019-01-29T14:14:37.487Z,86.60
2019-01-29T14:17:22.762Z,85.50
2019-01-29T14:20:11.892Z,86.00
2019-01-29T14:22:56.822Z,86.00
2019-01-29T14:25:42.120Z,86.50
2019-01-29T14:28:27.563Z,85.80
2019-01-29T14:31:12.778Z,86.60
2019-01-29T14:33:57.517Z,86.70
2019-01-29T14:36:43.292Z,86.60
2019-01-29T14:39:28.834Z,86.40
2019-01-29T14:42:14.165Z,86.60
2019-01-29T14:44:59.158Z,87.00
2019-01-29T14:47:44.377Z,86.60
2019-01-29T14:50:29.785Z,86.00
2019-01-29T14:53:15.171Z,85.20
2019-01-29T14:56:00.389Z,84.80
2019-01-29T14:58:45.546Z,83.90
2019-01-29T15:01:50.919Z,83.90
2019-01-29T15:04:35.860Z,84.20
2019-01-29T15:07:29.885Z,84.10
2019-01-29T15:10:12.236Z,84.80
2019-01-29T15:12:57.429Z,84.80
2019-01-29T15:15:47.250Z,83.90
2019-01-29T15:18:34.381Z,83.80
2019-01-29T15:21:19.410Z,83.20
2019-01-29T15:24:04.884Z,83.10
2019-01-29T15:26:49.824Z,83.10
2019-01-29T15:29:34.976Z,82.40
2019-01-29T15:32:20.172Z,81.10
2019-01-29T15:35:07.408Z,81.10
2019-01-29T15:37:52.336Z,79.90
2019-01-29T15:40:40.265Z,78.20
2019-01-29T15:43:25.414Z,78.10
2019-01-29T15:46:11.049Z,76.50
2019-01-29T15:48:56.573Z,76.40
2019-01-29T15:51:41.710Z,77.10
2019-01-29T15:54:27.134Z,77.80
2019-01-29T15:57:14.365Z,78.10
2019-01-29T16:00:02.683Z,78.70
2019-01-29T16:02:47.770Z,79.20
2019-01-29T16:05:35.495Z,79.10
2019-01-29T16:08:20.739Z,79.10
2019-01-29T16:11:05.813Z,79.00
2019-01-29T16:13:51.065Z,79.80
2019-01-29T16:16:42.771Z,79.80
2019-01-29T16:19:28.327Z,80.20
2019-01-29T16:22:23.982Z,80.50
2019-01-29T16:25:10.197Z,80.50
2019-01-29T16:27:55.181Z,80.50
2019-01-29T16:30:40.425Z,80.40
2019-01-29T16:33:26.058Z,81.10
2019-01-29T16:36:13.366Z,81.00
2019-01-29T16:38:58.272Z,80.40
2019-01-29T16:41:44.052Z,79.80
2019-01-29T16:44:29.511Z,79.50
2019-01-29T16:47:14.644Z,79.00
2019-01-29T16:50:00.210Z,78.40
2019-01-29T16:52:45.196Z,78.50
2019-01-29T16:55:31.790Z,78.70
2019-01-29T16:58:37.243Z,78.10
2019-01-29T17:01:22.194Z,76.80
2019-01-29T17:04:07.592Z,76.50
2019-01-29T17:06:52.407Z,75.70
2019-01-29T17:09:37.919Z,75.50
2019-01-29T17:12:23.747Z,75.10
2019-01-29T17:15:12.791Z,75.20
2019-01-29T17:17:58.886Z,75.20
2019-01-29T17:20:46.005Z,75.10
2019-01-29T17:23:32.156Z,75.90
2019-01-29T17:26:18.080Z,75.20
2019-01-29T17:29:03.811Z,75.60
2019-01-29T17:31:56.978Z,75.70
2019-01-29T17:34:41.135Z,75.70
2019-01-29T17:37:26.296Z,75.70
2019-01-29T17:40:15.706Z,76.30
2019-01-29T17:43:01.150Z,76.00
2019-01-29T17:45:49.061Z,76.20
2019-01-29T17:48:34.154Z,76.60
2019-01-29T17:51:19.207Z,76.20
2019-01-29T17:54:07.296Z,76.90
2019-01-29T17:56:52.600Z,76.90
2019-01-29T17:59:40.830Z,76.60
2019-01-29T18:02:25.755Z,77.10
2019-01-29T18:05:10.955Z,76.70
2019-01-29T18:07:58.767Z,76.80
2019-01-29T18:10:44.217Z,76.80
2019-01-29T18:13:29.479Z,76.90
2019-01-29T18:16:16.658Z,77.40
2019-01-29T18:19:01.655Z,77.20
2019-01-29T18:21:56.709Z,76.60
2019-01-29T18:24:37.530Z,76.40
2019-01-29T18:27:22.568Z,76.30
2019-01-29T18:30:23.734Z,76.60
2019-01-29T18:33:08.869Z,76.90
2019-01-29T18:35:54.388Z,76.40
2019-01-29T18:38:39.859Z,77.00
2019-01-29T18:41:24.892Z,76.70
2019-01-29T18:44:10.824Z,77.10
2019-01-29T18:46:55.942Z,77.40
2019-01-29T18:49:41.232Z,77.30
2019-01-29T18:52:26.304Z,77.40
2019-01-29T18:55:11.878Z,77.10
2019-01-29T18:57:57.145Z,77.80
2019-01-29T19:00:42.133Z,78.00
2019-01-29T19:03:27.098Z,78.10
2019-01-29T19:06:12.125Z,77.80
2019-01-29T19:08:57.292Z,78.60
2019-01-29T19:11:42.677Z,78.70
2019-01-29T19:14:27.946Z,78.40
2019-01-29T19:17:12.939Z,78.40
2019-01-29T19:19:57.913Z,78.80
2019-01-29T19:22:42.807Z,78.70
2019-01-29T19:25:27.936Z,78.70
2019-01-29T19:28:21.649Z,79.40
2019-01-29T19:30:59.541Z,78.90
2019-01-29T19:33:44.957Z,79.00
2019-01-29T19:36:31.374Z,79.70
2019-01-29T19:39:16.534Z,79.40
2019-01-29T19:42:01.811Z,79.70
2019-01-29T19:44:47.057Z,79.50
2019-01-29T19:47:32.390Z,79.10
2019-01-29T19:50:20.940Z,79.40
2019-01-29T19:53:05.844Z,80.00
2019-01-29T19:55:51.055Z,80.10
2019-01-29T19:58:36.349Z,79.50
2019-01-29T20:01:21.564Z,79.50
2019-01-29T20:04:06.863Z,79.90
2019-01-29T20:06:51.845Z,79.80
2019-01-29T20:09:36.761Z,80.00
2019-01-29T20:12:21.549Z,80.30
2019-01-29T20:15:13.152Z,80.10
2019-01-29T20:17:58.250Z,80.80
2019-01-29T20:20:43.759Z,80.60
2019-01-29T20:23:29.029Z,80.20
2019-01-29T20:26:14.117Z,79.40
2019-01-29T20:28:58.937Z,79.20
2019-01-29T20:31:44.341Z,79.00
2019-01-29T20:34:29.513Z,79.10
2019-01-29T20:37:14.766Z,79.00
2019-01-29T20:40:00.260Z,78.80
2019-01-29T20:42:45.473Z,78.50
2019-01-29T20:45:30.916Z,78.10
2019-01-29T20:48:15.957Z,78.10
2019-01-29T20:51:01.476Z,78.40
2019-01-29T20:53:46.590Z,78.10
2019-01-29T20:56:31.850Z,78.20
2019-01-29T20:59:17.018Z,78.30
2019-01-29T21:02:03.658Z,78.00
2019-01-29T21:04:48.450Z,77.80
2019-01-29T21:07:33.784Z,78.10
2019-01-29T21:10:20.560Z,77.90
2019-01-29T21:13:05.894Z,78.60
2019-01-29T21:15:50.809Z,78.20
2019-01-29T21:18:35.621Z,78.30
2019-01-29T21:21:20.627Z,78.40
2019-01-29T21:24:05.889Z,79.60
2019-01-29T21:26:51.080Z,79.40
2019-01-29T21:29:36.347Z,79.60
2019-01-29T21:32:21.915Z,80.00
2019-01-29T21:35:06.559Z,80.30
2019-01-29T21:37:51.556Z,80.60
2019-01-29T21:40:36.728Z,80.90
2019-01-29T21:43:22.066Z,80.60
2019-01-29T21:46:07.710Z,80.60
2019-01-29T21:48:52.752Z,81.10
2019-01-29T21:51:38.114Z,81.20
2019-01-29T21:54:23.305Z,81.30
2019-01-29T21:57:08.682Z,81.30
2019-01-29T21:59:54.267Z,82.30
2019-01-29T22:02:39.765Z,81.60
2019-01-29T22:05:24.695Z,81.00
2019-01-29T22:08:09.653Z,80.60
2019-01-29T22:10:55.357Z,80.70
2019-01-29T22:13:40.731Z,80.00
2019-01-29T22:16:26.632Z,79.70
2019-01-29T22:19:12.855Z,80.20
2019-01-29T22:21:58.047Z,80.10
2019-01-29T22:24:43.537Z,79.50
2019-01-29T22:27:28.883Z,79.40
2019-01-29T22:30:28.821Z,79.50
2019-01-29T22:33:14.837Z,79.90
2019-01-29T22:36:00.232Z,79.20
2019-01-29T22:38:45.790Z,79.30
2019-01-29T22:41:31.016Z,78.90
2019-01-29T22:44:16.290Z,78.90
2019-01-29T22:47:01.155Z,78.90
2019-01-29T22:49:46.248Z,78.50
2019-01-29T22:52:31.228Z,78.70
2019-01-29T22:55:16.414Z,80.10
2019-01-29T22:58:01.744Z,81.60
2019-01-29T23:00:55.128Z,81.60
2019-01-29T23:03:42.110Z,81.60
2019-01-29T23:06:34.156Z,81.30
2019-01-29T23:09:19.064Z,81.70
2019-01-29T23:12:04.364Z,81.00
2019-01-29T23:14:49.921Z,80.50
2019-01-29T23:17:34.980Z,80.40
2019-01-29T23:20:20.025Z,80.10
2019-01-29T23:23:04.836Z,79.90
2019-01-29T23:25:49.964Z,79.60
2019-01-29T23:28:35.234Z,80.00
2019-01-29T23:31:20.859Z,79.10
2019-01-29T23:34:05.925Z,79.40
2019-01-29T23:36:51.087Z,80.00
2019-01-29T23:39:35.932Z,79.30
2019-01-29T23:42:21.066Z,79.30
2019-01-29T23:45:09.524Z,80.00
2019-01-29T23:48:00.354Z,80.20
2019-01-29T23:50:45.422Z,79.00
2019-01-29T23:53:30.306Z,79.20
2019-01-29T23:56:15.464Z,79.10
2019-01-29T23:59:00.796Z,79.20
